Time;durP1;ratioP1;P1;durP2;ratioP2;P2;SDS_P1;SDS_P2;PMS_P1;PMS_P2;Temp;Humidity;BMP_temperature;BMP_pressure;BME280_temperature;BME280_humidity;BME280_pressure;Samples;Min_cycle;Max_cycle;Signal;HPM_P1;HPM_P2
2022/12/12 00:00:00;;;;;;;3.1;3.0;;;;;;;0.6;100.0;100840;;;;
2022/12/12 00:01:04;;;;;;;3.5;3.4;;;;;;;0.6;100.0;100840;;;;
2022/12/12 00:02:00;;;;;;;3.5;3.4;;;;;;;0.5;100.0;100840;;;;
2022/12/12 00:03:00;;;;;;;3.5;3.4;;;;;;;0.5;100.0;100840;;;;
2022/12/12 00:04:00;;;;;;;3.5;3.4;;;;;;;0.4;100.0;100850;;;;
2022/12/12 00:05:00;;;;;;;3.5;3.4;;;;;;;0.4;100.0;100850;;;;
2022/12/12 00:06:03;;;;;;;3.5;3.4;;;;;;;0.4;100.0;100850;;;;
2022/12/12 00:07:00;;;;;;;3.5;3.4;;;;;;;0.4;100.0;100850;;;;
2022/12/12 00:08:00;;;;;;;3.5;3.4;;;;;;;0.4;100.0;100850;;;;
2022/12/12 00:09:01;;;;;;;3.5;3.4;;;;;;;0.4;100.0;100850;;;;
2022/12/12 00:10:00;;;;;;;3.5;3.4;;;;;;;0.5;100.0;100850;;;;
2022/12/12 00:11:00;;;;;;;3.5;3.4;;;;;;;0.5;100.0;100850;;;;
2022/12/12 00:12:00;;;;;;;3.5;3.4;;;;;;;0.5;100.0;100850;;;;
2022/12/12 00:13:00;;;;;;;3.5;3.4;;;;;;;0.5;100.0;100850;;;;
2022/12/12 00:14:00;;;;;;;3.5;3.4;;;;;;;0.4;100.0;100850;;;;
2022/12/12 00:15:00;;;;;;;3.5;3.4;;;;;;;0.4;100.0;100850;;;;
2022/12/12 00:16:00;;;;;;;3.5;3.4;;;;;;;0.3;100.0;100850;;;;
2022/12/12 00:17:00;;;;;;;3.5;3.4;;;;;;;0.3;100.0;100850;;;;
2022/12/12 00:18:00;;;;;;;3.5;3.4;;;;;;;0.3;100.0;100850;;;;
2022/12/12 00:19:00;;;;;;;3.5;3.4;;;;;;;0.3;100.0;100850;;;;
2022/12/12 00:20:00;;;;;;;3.5;3.4;;;;;;;0.3;100.0;100850;;;;
2022/12/12 00:21:00;;;;;;;5.0;4.8;;;;;;;0.3;100.0;100850;;;;
2022/12/12 00:22:00;;;;;;;5.0;4.8;;;;;;;0.2;100.0;100860;;;;
2022/12/12 00:23:00;;;;;;;5.0;4.8;;;;;;;0.2;100.0;100860;;;;
2022/12/12 00:24:00;;;;;;;5.0;4.8;;;;;;;0.2;100.0;100850;;;;
2022/12/12 00:25:00;;;;;;;5.0;4.8;;;;;;;0.2;100.0;100850;;;;
2022/12/12 00:26:03;;;;;;;5.0;4.8;;;;;;;0.2;100.0;100850;;;;
2022/12/12 00:27:00;;;;;;;5.0;4.8;;;;;;;0.2;100.0;100850;;;;
2022/12/12 00:28:01;;;;;;;5.0;4.8;;;;;;;0.2;100.0;100850;;;;
2022/12/12 00:29:01;;;;;;;5.0;4.8;;;;;;;0.2;100.0;100850;;;;
2022/12/12 00:30:00;;;;;;;5.0;4.8;;;;;;;0.1;100.0;100850;;;;
2022/12/12 00:31:00;;;;;;;5.0;4.8;;;;;;;0.1;100.0;100850;;;;
2022/12/12 00:32:00;;;;;;;5.0;4.8;;;;;;;-0.0;100.0;100850;;;;
2022/12/12 00:33:00;;;;;;;5.0;4.8;;;;;;;-0.0;100.0;100850;;;;
2022/12/12 00:34:00;;;;;;;5.0;4.8;;;;;;;-0.0;100.0;100850;;;;
2022/12/12 00:35:00;;;;;;;5.0;4.8;;;;;;;-0.0;100.0;100850;;;;
2022/12/12 00:36:00;;;;;;;5.0;4.8;;;;;;;-0.0;100.0;100850;;;;
2022/12/12 00:37:00;;;;;;;5.0;4.8;;;;;;;-0.0;100.0;100850;;;;
2022/12/12 00:38:00;;;;;;;5.0;4.8;;;;;;;-0.1;100.0;100850;;;;
2022/12/12 00:39:00;;;;;;;5.0;4.8;;;;;;;-0.1;100.0;100850;;;;
2022/12/12 00:40:00;;;;;;;5.0;4.8;;;;;;;-0.2;100.0;100850;;;;
2022/12/12 00:41:01;;;;;;;3.4;3.3;;;;;;;-0.2;100.0;100850;;;;
2022/12/12 00:42:00;;;;;;;3.4;3.3;;;;;;;-0.1;100.0;100850;;;;
2022/12/12 00:43:00;;;;;;;3.4;3.3;;;;;;;-0.1;100.0;100850;;;;
2022/12/12 00:44:00;;;;;;;3.4;3.3;;;;;;;-0.2;100.0;100850;;;;
2022/12/12 00:45:00;;;;;;;3.4;3.3;;;;;;;-0.2;100.0;100850;;;;
2022/12/12 00:46:01;;;;;;;3.4;3.3;;;;;;;-0.2;100.0;100850;;;;
2022/12/12 00:47:01;;;;;;;3.4;3.3;;;;;;;-0.2;100.0;100850;;;;
2022/12/12 00:48:00;;;;;;;3.4;3.3;;;;;;;-0.2;100.0;100850;;;;
2022/12/12 00:49:00;;;;;;;3.4;3.3;;;;;;;-0.2;100.0;100850;;;;
2022/12/12 00:50:00;;;;;;;3.4;3.3;;;;;;;-0.3;100.0;100850;;;;
2022/12/12 00:51:05;;;;;;;3.4;3.3;;;;;;;-0.3;100.0;100850;;;;
2022/12/12 00:52:00;;;;;;;3.4;3.3;;;;;;;-0.4;100.0;100850;;;;
2022/12/12 00:53:00;;;;;;;3.4;3.3;;;;;;;-0.4;100.0;100850;;;;
2022/12/12 00:54:00;;;;;;;3.4;3.3;;;;;;;-0.4;100.0;100850;;;;
2022/12/12 00:55:00;;;;;;;3.4;3.3;;;;;;;-0.4;100.0;100850;;;;
2022/12/12 00:56:00;;;;;;;3.4;3.3;;;;;;;-0.4;100.0;100860;;;;
2022/12/12 00:57:00;;;;;;;3.4;3.3;;;;;;;-0.4;100.0;100860;;;;
2022/12/12 00:58:00;;;;;;;3.4;3.3;;;;;;;-0.4;100.0;100860;;;;
2022/12/12 00:59:01;;;;;;;3.4;3.3;;;;;;;-0.4;100.0;100860;;;;
2022/12/12 01:00:00;;;;;;;3.4;3.3;;;;;;;-0.4;100.0;100860;;;;
2022/12/12 01:01:05;;;;;;;3.7;3.6;;;;;;;-0.4;100.0;100860;;;;
2022/12/12 01:02:00;;;;;;;3.7;3.6;;;;;;;-0.4;100.0;100860;;;;
2022/12/12 01:03:01;;;;;;;3.7;3.6;;;;;;;-0.4;100.0;100860;;;;
2022/12/12 01:04:01;;;;;;;3.7;3.6;;;;;;;-0.4;100.0;100860;;;;
2022/12/12 01:05:00;;;;;;;3.7;3.6;;;;;;;-0.4;100.0;100860;;;;
2022/12/12 01:06:01;;;;;;;3.7;3.6;;;;;;;-0.5;100.0;100850;;;;
2022/12/12 01:07:00;;;;;;;3.7;3.6;;;;;;;-0.5;100.0;100850;;;;
2022/12/12 01:08:00;;;;;;;3.7;3.6;;;;;;;-0.5;100.0;100850;;;;
2022/12/12 01:09:00;;;;;;;3.7;3.6;;;;;;;-0.5;100.0;100850;;;;
2022/12/12 01:10:00;;;;;;;3.7;3.6;;;;;;;-0.6;100.0;100860;;;;
2022/12/12 01:11:00;;;;;;;3.7;3.6;;;;;;;-0.6;100.0;100860;;;;
2022/12/12 01:12:00;;;;;;;3.7;3.6;;;;;;;-0.6;100.0;100860;;;;
2022/12/12 01:13:00;;;;;;;3.7;3.6;;;;;;;-0.6;100.0;100860;;;;
2022/12/12 01:14:01;;;;;;;3.7;3.6;;;;;;;-0.6;100.0;100870;;;;
2022/12/12 01:15:00;;;;;;;3.7;3.6;;;;;;;-0.6;100.0;100870;;;;
2022/12/12 01:16:00;;;;;;;3.7;3.6;;;;;;;-0.6;100.0;100860;;;;
2022/12/12 01:17:00;;;;;;;3.7;3.6;;;;;;;-0.6;100.0;100860;;;;
2022/12/12 01:18:00;;;;;;;3.7;3.6;;;;;;;-0.6;100.0;100870;;;;
2022/12/12 01:19:00;;;;;;;3.7;3.6;;;;;;;-0.6;100.0;100870;;;;
2022/12/12 01:20:01;;;;;;;3.7;3.6;;;;;;;-0.7;100.0;100870;;;;
2022/12/12 01:21:00;;;;;;;3.6;3.5;;;;;;;-0.7;100.0;100870;;;;
2022/12/12 01:22:00;;;;;;;3.6;3.5;;;;;;;-0.7;100.0;100870;;;;
2022/12/12 01:23:00;;;;;;;3.6;3.5;;;;;;;-0.7;100.0;100870;;;;
2022/12/12 01:24:00;;;;;;;3.6;3.5;;;;;;;-0.8;100.0;100880;;;;
2022/12/12 01:25:00;;;;;;;3.6;3.5;;;;;;;-0.8;100.0;100880;;;;
2022/12/12 01:26:01;;;;;;;3.6;3.5;;;;;;;-0.8;100.0;100880;;;;
2022/12/12 01:27:00;;;;;;;3.6;3.5;;;;;;;-0.8;100.0;100880;;;;
2022/12/12 01:28:00;;;;;;;3.6;3.5;;;;;;;-0.8;100.0;100890;;;;
2022/12/12 01:29:00;;;;;;;3.6;3.5;;;;;;;-0.8;100.0;100890;;;;
2022/12/12 01:30:01;;;;;;;3.6;3.5;;;;;;;-0.8;100.0;100890;;;;
2022/12/12 01:31:00;;;;;;;3.6;3.5;;;;;;;-0.8;100.0;100890;;;;
2022/12/12 01:32:00;;;;;;;3.6;3.5;;;;;;;-0.9;100.0;100900;;;;
2022/12/12 01:33:01;;;;;;;3.6;3.5;;;;;;;-0.9;100.0;100900;;;;
2022/12/12 01:34:00;;;;;;;3.6;3.5;;;;;;;-0.9;100.0;100900;;;;
2022/12/12 01:35:00;;;;;;;3.6;3.5;;;;;;;-0.9;100.0;100900;;;;
2022/12/12 01:36:00;;;;;;;3.6;3.5;;;;;;;-0.9;100.0;100900;;;;
2022/12/12 01:37:00;;;;;;;3.6;3.5;;;;;;;-0.9;100.0;100900;;;;
2022/12/12 01:38:00;;;;;;;3.6;3.5;;;;;;;-0.9;100.0;100900;;;;
2022/12/12 01:39:01;;;;;;;3.6;3.5;;;;;;;-0.9;100.0;100900;;;;
2022/12/12 01:40:00;;;;;;;3.6;3.5;;;;;;;-1.0;100.0;100910;;;;
2022/12/12 01:41:00;;;;;;;3.9;3.8;;;;;;;-1.0;100.0;100910;;;;
2022/12/12 01:42:00;;;;;;;3.9;3.8;;;;;;;-1.0;100.0;100910;;;;
2022/12/12 01:43:00;;;;;;;3.9;3.8;;;;;;;-1.0;100.0;100910;;;;
2022/12/12 01:44:01;;;;;;;3.9;3.8;;;;;;;-1.0;100.0;100910;;;;
2022/12/12 01:45:00;;;;;;;3.9;3.8;;;;;;;-1.0;100.0;100910;;;;
2022/12/12 01:46:01;;;;;;;3.9;3.8;;;;;;;-1.0;100.0;100910;;;;
2022/12/12 01:47:00;;;;;;;3.9;3.8;;;;;;;-1.0;100.0;100910;;;;
2022/12/12 01:48:05;;;;;;;3.9;3.8;;;;;;;-1.1;100.0;100910;;;;
2022/12/12 01:49:10;;;;;;;3.9;3.8;;;;;;;-1.1;100.0;100910;;;;
2022/12/12 01:50:03;;;;;;;3.9;3.8;;;;;;;-1.1;100.0;100910;;;;
2022/12/12 01:51:02;;;;;;;3.9;3.8;;;;;;;-1.1;100.0;100910;;;;
2022/12/12 01:52:03;;;;;;;3.9;3.8;;;;;;;-1.2;100.0;100910;;;;
2022/12/12 01:53:00;;;;;;;3.9;3.8;;;;;;;-1.2;100.0;100910;;;;
2022/12/12 01:54:03;;;;;;;3.9;3.8;;;;;;;-1.2;100.0;100910;;;;
2022/12/12 01:55:03;;;;;;;3.9;3.8;;;;;;;-1.2;100.0;100910;;;;
2022/12/12 01:56:02;;;;;;;3.9;3.8;;;;;;;-1.2;100.0;100910;;;;
2022/12/12 01:57:03;;;;;;;3.9;3.8;;;;;;;-1.2;100.0;100910;;;;
2022/12/12 01:58:01;;;;;;;3.9;3.8;;;;;;;-1.1;100.0;100920;;;;
2022/12/12 01:59:02;;;;;;;3.9;3.8;;;;;;;-1.1;100.0;100920;;;;
2022/12/12 02:00:02;;;;;;;3.9;3.8;;;;;;;-1.1;100.0;100910;;;;
2022/12/12 02:01:01;;;;;;;4.1;4.0;;;;;;;-1.1;100.0;100910;;;;
2022/12/12 02:02:01;;;;;;;4.1;4.0;;;;;;;-1.1;100.0;100910;;;;
2022/12/12 02:03:00;;;;;;;4.1;4.0;;;;;;;-1.1;100.0;100910;;;;
2022/12/12 02:04:01;;;;;;;4.1;4.0;;;;;;;-1.1;100.0;100910;;;;
2022/12/12 02:05:03;;;;;;;4.1;4.0;;;;;;;-1.1;100.0;100910;;;;
2022/12/12 02:06:02;;;;;;;4.1;4.0;;;;;;;-1.0;100.0;100920;;;;
2022/12/12 02:07:00;;;;;;;4.1;4.0;;;;;;;-1.0;100.0;100920;;;;
2022/12/12 02:08:02;;;;;;;4.1;4.0;;;;;;;-1.1;100.0;100910;;;;
2022/12/12 02:09:02;;;;;;;4.1;4.0;;;;;;;-1.1;100.0;100910;;;;
2022/12/12 02:10:00;;;;;;;4.1;4.0;;;;;;;-1.1;100.0;100920;;;;
2022/12/12 02:11:01;;;;;;;4.1;4.0;;;;;;;-1.1;100.0;100920;;;;
2022/12/12 02:12:00;;;;;;;4.1;4.0;;;;;;;-1.1;100.0;100920;;;;
2022/12/12 02:13:04;;;;;;;4.1;4.0;;;;;;;-1.1;100.0;100920;;;;
2022/12/12 02:14:00;;;;;;;4.1;4.0;;;;;;;-1.1;100.0;100910;;;;
2022/12/12 02:15:01;;;;;;;4.1;4.0;;;;;;;-1.1;100.0;100910;;;;
2022/12/12 02:16:10;;;;;;;4.1;4.0;;;;;;;-1.2;100.0;100910;;;;
2022/12/12 02:17:10;;;;;;;4.1;4.0;;;;;;;-1.2;100.0;100910;;;;
2022/12/12 02:18:03;;;;;;;4.1;4.0;;;;;;;-1.2;100.0;100920;;;;
2022/12/12 02:19:06;;;;;;;4.1;4.0;;;;;;;-1.2;100.0;100920;;;;
2022/12/12 02:20:11;;;;;;;4.1;4.0;;;;;;;-1.2;100.0;100920;;;;
2022/12/12 02:21:10;;;;;;;4.1;4.0;;;;;;;-1.2;100.0;100920;;;;
2022/12/12 02:22:00;;;;;;;4.1;4.0;;;;;;;-1.1;100.0;100920;;;;
2022/12/12 02:23:10;;;;;;;4.1;4.0;;;;;;;-1.1;100.0;100920;;;;
2022/12/12 02:24:08;;;;;;;4.1;4.0;;;;;;;-1.2;100.0;100920;;;;
2022/12/12 02:25:00;;;;;;;4.1;4.0;;;;;;;-1.2;100.0;100920;;;;
2022/12/12 02:26:10;;;;;;;4.1;4.0;;;;;;;-1.2;100.0;100920;;;;
2022/12/12 02:27:10;;;;;;;4.1;4.0;;;;;;;-1.2;100.0;100920;;;;
2022/12/12 02:28:10;;;;;;;4.1;4.0;;;;;;;-1.2;100.0;100920;;;;
2022/12/12 02:29:10;;;;;;;4.1;4.0;;;;;;;-1.2;100.0;100920;;;;
2022/12/12 02:30:00;;;;;;;4.1;4.0;;;;;;;-1.2;100.0;100920;;;;
2022/12/12 02:31:10;;;;;;;4.1;4.0;;;;;;;-1.2;100.0;100920;;;;
2022/12/12 02:32:05;;;;;;;4.1;4.0;;;;;;;-1.2;100.0;100920;;;;
2022/12/12 02:33:00;;;;;;;4.1;4.0;;;;;;;-1.2;100.0;100920;;;;
2022/12/12 02:34:08;;;;;;;4.1;4.0;;;;;;;-1.3;100.0;100920;;;;
2022/12/12 02:35:11;;;;;;;4.1;4.0;;;;;;;-1.3;100.0;100920;;;;
2022/12/12 02:37:06;;;;;;;4.1;4.0;;;;;;;-1.2;100.0;100920;;;;
2022/12/12 02:38:05;;;;;;;4.1;4.0;;;;;;;-1.3;100.0;100920;;;;
2022/12/12 02:39:05;;;;;;;4.1;4.0;;;;;;;-1.3;100.0;100920;;;;
2022/12/12 02:40:07;;;;;;;4.0;3.9;;;;;;;-1.3;100.0;100920;;;;
2022/12/12 02:41:10;;;;;;;4.0;3.9;;;;;;;-1.3;100.0;100920;;;;
2022/12/12 02:42:05;;;;;;;4.0;3.9;;;;;;;-1.3;100.0;100920;;;;
2022/12/12 02:43:10;;;;;;;4.0;3.9;;;;;;;-1.3;100.0;100920;;;;
2022/12/12 02:44:10;;;;;;;4.0;3.9;;;;;;;-1.3;100.0;100920;;;;
2022/12/12 02:45:06;;;;;;;4.0;3.9;;;;;;;-1.3;100.0;100920;;;;
2022/12/12 02:46:05;;;;;;;4.0;3.9;;;;;;;-1.3;100.0;100920;;;;
2022/12/12 02:47:04;;;;;;;4.0;3.9;;;;;;;-1.3;100.0;100920;;;;
2022/12/12 02:48:10;;;;;;;4.0;3.9;;;;;;;-1.3;100.0;100920;;;;
2022/12/12 02:49:03;;;;;;;4.0;3.9;;;;;;;-1.3;100.0;100920;;;;
2022/12/12 02:50:00;;;;;;;4.0;3.9;;;;;;;-1.2;100.0;100920;;;;
2022/12/12 02:51:01;;;;;;;4.0;3.9;;;;;;;-1.2;100.0;100920;;;;
2022/12/12 02:52:01;;;;;;;4.0;3.9;;;;;;;-1.3;100.0;100920;;;;
2022/12/12 02:53:00;;;;;;;4.0;3.9;;;;;;;-1.3;100.0;100920;;;;
2022/12/12 02:54:03;;;;;;;4.0;3.9;;;;;;;-1.3;100.0;100920;;;;
2022/12/12 02:55:00;;;;;;;4.0;3.9;;;;;;;-1.3;100.0;100920;;;;
2022/12/12 02:56:01;;;;;;;4.0;3.9;;;;;;;-1.4;100.0;100910;;;;
2022/12/12 02:57:01;;;;;;;4.0;3.9;;;;;;;-1.4;100.0;100910;;;;
2022/12/12 02:58:02;;;;;;;4.0;3.9;;;;;;;-1.4;100.0;100910;;;;
2022/12/12 02:59:00;;;;;;;4.0;3.9;;;;;;;-1.4;100.0;100910;;;;
2022/12/12 03:00:07;;;;;;;4.6;4.5;;;;;;;-1.5;100.0;100910;;;;
2022/12/12 03:01:10;;;;;;;4.6;4.5;;;;;;;-1.5;100.0;100910;;;;
2022/12/12 03:02:01;;;;;;;4.6;4.5;;;;;;;-1.4;100.0;100910;;;;
2022/12/12 03:08:08;;;;;;;4.6;4.5;;;;;;;-1.5;100.0;100910;;;;
2022/12/12 03:09:10;;;;;;;4.6;4.5;;;;;;;-1.5;100.0;100910;;;;
2022/12/12 03:10:00;;;;;;;4.6;4.5;;;;;;;-1.6;100.0;100910;;;;
2022/12/12 03:11:02;;;;;;;4.6;4.5;;;;;;;-1.6;100.0;100910;;;;
2022/12/12 03:12:07;;;;;;;4.6;4.5;;;;;;;-1.6;100.0;100920;;;;
2022/12/12 03:13:10;;;;;;;4.6;4.5;;;;;;;-1.6;100.0;100920;;;;
2022/12/12 03:14:09;;;;;;;4.6;4.5;;;;;;;-1.6;100.0;100910;;;;
2022/12/12 03:15:04;;;;;;;4.6;4.5;;;;;;;-1.6;100.0;100910;;;;
2022/12/12 03:16:10;;;;;;;4.6;4.5;;;;;;;-1.5;100.0;100910;;;;
2022/12/12 03:17:06;;;;;;;4.6;4.5;;;;;;;-1.5;100.0;100910;;;;
2022/12/12 03:18:10;;;;;;;4.6;4.5;;;;;;;-1.6;100.0;100910;;;;
2022/12/12 03:19:09;;;;;;;4.6;4.5;;;;;;;-1.6;100.0;100910;;;;
2022/12/12 03:20:10;;;;;;;4.8;4.7;;;;;;;-1.6;100.0;100910;;;;
2022/12/12 03:21:03;;;;;;;4.8;4.7;;;;;;;-1.6;100.0;100910;;;;
2022/12/12 03:22:10;;;;;;;4.8;4.7;;;;;;;-1.6;100.0;100910;;;;
2022/12/12 03:23:06;;;;;;;4.8;4.7;;;;;;;-1.6;100.0;100910;;;;
2022/12/12 03:24:10;;;;;;;4.8;4.7;;;;;;;-1.7;100.0;100920;;;;
2022/12/12 03:25:07;;;;;;;4.8;4.7;;;;;;;-1.7;100.0;100920;;;;
2022/12/12 03:26:05;;;;;;;4.8;4.7;;;;;;;-1.7;100.0;100920;;;;
2022/12/12 03:27:03;;;;;;;4.8;4.7;;;;;;;-1.7;100.0;100920;;;;
2022/12/12 03:28:04;;;;;;;4.8;4.7;;;;;;;-1.7;100.0;100920;;;;
2022/12/12 03:29:04;;;;;;;4.8;4.7;;;;;;;-1.7;100.0;100920;;;;
2022/12/12 03:30:02;;;;;;;4.8;4.7;;;;;;;-1.7;100.0;100920;;;;
2022/12/12 03:31:03;;;;;;;4.8;4.7;;;;;;;-1.7;100.0;100920;;;;
2022/12/12 03:32:04;;;;;;;4.8;4.7;;;;;;;-1.8;100.0;100920;;;;
2022/12/12 03:33:08;;;;;;;4.8;4.7;;;;;;;-1.8;100.0;100920;;;;
2022/12/12 03:34:03;;;;;;;4.8;4.7;;;;;;;-1.8;100.0;100920;;;;
2022/12/12 03:35:06;;;;;;;4.8;4.7;;;;;;;-1.8;100.0;100920;;;;
2022/12/12 03:36:10;;;;;;;4.8;4.7;;;;;;;-1.8;100.0;100920;;;;
2022/12/12 03:37:07;;;;;;;4.8;4.7;;;;;;;-1.8;100.0;100920;;;;
2022/12/12 03:38:03;;;;;;;4.8;4.7;;;;;;;-1.8;100.0;100920;;;;
2022/12/12 03:39:04;;;;;;;4.8;4.7;;;;;;;-1.8;100.0;100920;;;;
2022/12/12 03:40:04;;;;;;;4.7;4.6;;;;;;;-1.8;100.0;100920;;;;
2022/12/12 03:41:03;;;;;;;4.7;4.6;;;;;;;-1.8;100.0;100920;;;;
2022/12/12 03:42:06;;;;;;;4.7;4.6;;;;;;;-1.8;100.0;100920;;;;
2022/12/12 03:43:00;;;;;;;4.7;4.6;;;;;;;-1.8;100.0;100920;;;;
2022/12/12 03:44:05;;;;;;;4.7;4.6;;;;;;;-1.8;100.0;100920;;;;
2022/12/12 03:45:11;;;;;;;4.7;4.6;;;;;;;-1.8;100.0;100920;;;;
2022/12/12 03:46:06;;;;;;;4.7;4.6;;;;;;;-1.9;100.0;100920;;;;
2022/12/12 03:47:03;;;;;;;4.7;4.6;;;;;;;-1.9;100.0;100920;;;;
2022/12/12 03:48:00;;;;;;;4.7;4.6;;;;;;;-1.9;100.0;100920;;;;
2022/12/12 03:49:10;;;;;;;4.7;4.6;;;;;;;-1.9;100.0;100920;;;;
2022/12/12 03:50:05;;;;;;;4.7;4.6;;;;;;;-1.9;100.0;100920;;;;
2022/12/12 03:51:03;;;;;;;4.7;4.6;;;;;;;-1.9;100.0;100920;;;;
2022/12/12 03:52:05;;;;;;;4.7;4.6;;;;;;;-1.9;100.0;100930;;;;
2022/12/12 03:53:03;;;;;;;4.7;4.6;;;;;;;-1.9;100.0;100930;;;;
2022/12/12 03:54:00;;;;;;;4.7;4.6;;;;;;;-1.9;100.0;100930;;;;
2022/12/12 03:55:09;;;;;;;4.7;4.6;;;;;;;-1.9;100.0;100930;;;;
2022/12/12 03:56:05;;;;;;;4.7;4.6;;;;;;;-2.0;100.0;100930;;;;
2022/12/12 03:57:04;;;;;;;4.7;4.6;;;;;;;-2.0;100.0;100930;;;;
2022/12/12 03:58:07;;;;;;;4.7;4.6;;;;;;;-2.0;100.0;100930;;;;
2022/12/12 03:59:00;;;;;;;4.7;4.6;;;;;;;-2.0;100.0;100930;;;;
2022/12/12 04:00:07;;;;;;;4.1;4.0;;;;;;;-2.0;100.0;100930;;;;
2022/12/12 04:01:03;;;;;;;4.1;4.0;;;;;;;-2.0;100.0;100930;;;;
2022/12/12 04:02:08;;;;;;;4.1;4.0;;;;;;;-2.0;100.0;100930;;;;
2022/12/12 04:03:08;;;;;;;4.1;4.0;;;;;;;-2.0;100.0;100930;;;;
2022/12/12 04:04:06;;;;;;;4.1;4.0;;;;;;;-2.0;100.0;100930;;;;
2022/12/12 04:05:11;;;;;;;4.1;4.0;;;;;;;-2.0;100.0;100930;;;;
2022/12/12 04:07:04;;;;;;;4.1;4.0;;;;;;;-2.0;100.0;100940;;;;
2022/12/12 04:08:04;;;;;;;4.1;4.0;;;;;;;-2.0;100.0;100940;;;;
2022/12/12 04:13:02;;;;;;;4.1;4.0;;;;;;;-2.0;100.0;100940;;;;
2022/12/12 04:14:10;;;;;;;4.1;4.0;;;;;;;-2.1;100.0;100940;;;;
2022/12/12 04:15:11;;;;;;;4.1;4.0;;;;;;;-2.1;100.0;100940;;;;
2022/12/12 04:16:00;;;;;;;4.1;4.0;;;;;;;-2.1;100.0;100940;;;;
2022/12/12 04:17:03;;;;;;;4.1;4.0;;;;;;;-2.1;100.0;100940;;;;
2022/12/12 04:18:10;;;;;;;4.1;4.0;;;;;;;-2.1;100.0;100940;;;;
2022/12/12 04:19:03;;;;;;;4.1;4.0;;;;;;;-2.1;100.0;100940;;;;
2022/12/12 04:24:10;;;;;;;4.6;4.5;;;;;;;-2.2;100.0;100940;;;;
2022/12/12 04:25:03;;;;;;;4.6;4.5;;;;;;;-2.2;100.0;100940;;;;
2022/12/12 04:27:03;;;;;;;4.6;4.5;;;;;;;-2.2;100.0;100930;;;;
2022/12/12 04:28:04;;;;;;;4.6;4.5;;;;;;;-2.2;100.0;100930;;;;
2022/12/12 04:29:10;;;;;;;4.6;4.5;;;;;;;-2.2;100.0;100930;;;;
2022/12/12 04:30:04;;;;;;;4.6;4.5;;;;;;;-2.2;100.0;100940;;;;
2022/12/12 04:31:02;;;;;;;4.6;4.5;;;;;;;-2.2;100.0;100940;;;;
2022/12/12 04:32:04;;;;;;;4.6;4.5;;;;;;;-2.2;100.0;100930;;;;
2022/12/12 04:33:04;;;;;;;4.6;4.5;;;;;;;-2.2;100.0;100930;;;;
2022/12/12 04:34:03;;;;;;;4.6;4.5;;;;;;;-2.2;100.0;100940;;;;
2022/12/12 04:35:11;;;;;;;4.6;4.5;;;;;;;-2.2;100.0;100940;;;;
2022/12/12 04:36:01;;;;;;;4.6;4.5;;;;;;;-2.3;100.0;100940;;;;
2022/12/12 04:37:02;;;;;;;4.6;4.5;;;;;;;-2.3;100.0;100940;;;;
2022/12/12 04:38:03;;;;;;;4.6;4.5;;;;;;;-2.3;100.0;100940;;;;
2022/12/12 04:39:01;;;;;;;4.6;4.5;;;;;;;-2.3;100.0;100940;;;;
2022/12/12 04:40:04;;;;;;;5.3;5.1;;;;;;;-2.3;100.0;100940;;;;
2022/12/12 04:41:01;;;;;;;5.3;5.1;;;;;;;-2.3;100.0;100940;;;;
2022/12/12 04:42:02;;;;;;;5.3;5.1;;;;;;;-2.3;100.0;100950;;;;
2022/12/12 04:43:04;;;;;;;5.3;5.1;;;;;;;-2.3;100.0;100950;;;;
2022/12/12 04:44:02;;;;;;;5.3;5.1;;;;;;;-2.3;100.0;100950;;;;
2022/12/12 04:45:04;;;;;;;5.3;5.1;;;;;;;-2.3;100.0;100950;;;;
2022/12/12 04:46:06;;;;;;;5.3;5.1;;;;;;;-2.4;100.0;100950;;;;
2022/12/12 04:47:01;;;;;;;5.3;5.1;;;;;;;-2.4;100.0;100950;;;;
2022/12/12 04:48:02;;;;;;;5.3;5.1;;;;;;;-2.4;100.0;100950;;;;
2022/12/12 04:49:04;;;;;;;5.3;5.1;;;;;;;-2.4;100.0;100950;;;;
2022/12/12 04:50:01;;;;;;;5.3;5.1;;;;;;;-2.4;100.0;100950;;;;
2022/12/12 04:51:01;;;;;;;5.3;5.1;;;;;;;-2.4;100.0;100950;;;;
2022/12/12 04:52:04;;;;;;;5.3;5.1;;;;;;;-2.4;100.0;100950;;;;
2022/12/12 04:53:02;;;;;;;5.3;5.1;;;;;;;-2.4;100.0;100950;;;;
2022/12/12 04:54:04;;;;;;;5.3;5.1;;;;;;;-2.4;100.0;100950;;;;
2022/12/12 04:55:10;;;;;;;5.3;5.1;;;;;;;-2.4;100.0;100950;;;;
2022/12/12 04:56:04;;;;;;;5.3;5.1;;;;;;;-2.4;100.0;100950;;;;
2022/12/12 04:57:02;;;;;;;5.3;5.1;;;;;;;-2.4;100.0;100950;;;;
2022/12/12 04:58:01;;;;;;;5.3;5.1;;;;;;;-2.4;100.0;100950;;;;
2022/12/12 04:59:01;;;;;;;5.3;5.1;;;;;;;-2.4;100.0;100950;;;;
2022/12/12 05:00:00;;;;;;;4.8;4.7;;;;;;;-2.4;100.0;100950;;;;
2022/12/12 05:01:10;;;;;;;4.8;4.7;;;;;;;-2.4;100.0;100950;;;;
2022/12/12 05:02:01;;;;;;;4.8;4.7;;;;;;;-2.4;100.0;100950;;;;
2022/12/12 05:03:10;;;;;;;4.8;4.7;;;;;;;-2.4;100.0;100950;;;;
2022/12/12 05:04:04;;;;;;;4.8;4.7;;;;;;;-2.4;100.0;100950;;;;
2022/12/12 05:05:05;;;;;;;4.8;4.7;;;;;;;-2.4;100.0;100950;;;;
2022/12/12 05:06:03;;;;;;;4.8;4.7;;;;;;;-2.5;100.0;100950;;;;
2022/12/12 05:07:06;;;;;;;4.8;4.7;;;;;;;-2.5;100.0;100950;;;;
2022/12/12 05:08:05;;;;;;;4.8;4.7;;;;;;;-2.5;100.0;100960;;;;
2022/12/12 05:09:01;;;;;;;4.8;4.7;;;;;;;-2.5;100.0;100960;;;;
2022/12/12 05:10:00;;;;;;;4.8;4.7;;;;;;;-2.5;100.0;100960;;;;
2022/12/12 05:11:02;;;;;;;4.8;4.7;;;;;;;-2.5;100.0;100960;;;;
2022/12/12 05:12:00;;;;;;;4.8;4.7;;;;;;;-2.5;100.0;100960;;;;
2022/12/12 05:13:00;;;;;;;4.8;4.7;;;;;;;-2.5;100.0;100960;;;;
2022/12/12 05:14:00;;;;;;;4.8;4.7;;;;;;;-2.5;100.0;100960;;;;
2022/12/12 05:15:00;;;;;;;4.8;4.7;;;;;;;-2.5;100.0;100960;;;;
2022/12/12 05:16:02;;;;;;;4.8;4.7;;;;;;;-2.6;100.0;100960;;;;
2022/12/12 05:17:05;;;;;;;4.8;4.7;;;;;;;-2.6;100.0;100960;;;;
2022/12/12 05:18:04;;;;;;;4.8;4.7;;;;;;;-2.6;100.0;100960;;;;
2022/12/12 05:19:00;;;;;;;4.8;4.7;;;;;;;-2.6;100.0;100960;;;;
2022/12/12 05:20:00;;;;;;;5.3;5.1;;;;;;;-2.7;100.0;100960;;;;
2022/12/12 05:21:00;;;;;;;5.3;5.1;;;;;;;-2.7;100.0;100960;;;;
2022/12/12 05:22:00;;;;;;;5.3;5.1;;;;;;;-2.6;100.0;100960;;;;
2022/12/12 05:23:00;;;;;;;5.3;5.1;;;;;;;-2.6;100.0;100960;;;;
2022/12/12 05:24:00;;;;;;;5.3;5.1;;;;;;;-2.7;100.0;100960;;;;
2022/12/12 05:25:00;;;;;;;5.3;5.1;;;;;;;-2.7;100.0;100960;;;;
2022/12/12 05:26:09;;;;;;;5.3;5.1;;;;;;;-2.7;100.0;100960;;;;
2022/12/12 05:27:00;;;;;;;5.3;5.1;;;;;;;-2.7;100.0;100960;;;;
2022/12/12 05:28:00;;;;;;;5.3;5.1;;;;;;;-2.7;100.0;100960;;;;
2022/12/12 05:29:07;;;;;;;5.3;5.1;;;;;;;-2.7;100.0;100960;;;;
2022/12/12 05:30:00;;;;;;;5.3;5.1;;;;;;;-2.7;100.0;100960;;;;
2022/12/12 05:31:00;;;;;;;5.3;5.1;;;;;;;-2.7;100.0;100960;;;;
2022/12/12 05:32:00;;;;;;;5.3;5.1;;;;;;;-2.8;100.0;100960;;;;
2022/12/12 05:33:00;;;;;;;5.3;5.1;;;;;;;-2.8;100.0;100960;;;;
2022/12/12 05:34:00;;;;;;;5.3;5.1;;;;;;;-2.8;100.0;100960;;;;
2022/12/12 05:35:00;;;;;;;5.3;5.1;;;;;;;-2.8;100.0;100960;;;;
2022/12/12 05:36:00;;;;;;;5.3;5.1;;;;;;;-2.7;100.0;100960;;;;
2022/12/12 05:37:00;;;;;;;5.3;5.1;;;;;;;-2.7;100.0;100960;;;;
2022/12/12 05:38:00;;;;;;;5.3;5.1;;;;;;;-2.7;100.0;100960;;;;
2022/12/12 05:39:00;;;;;;;5.3;5.1;;;;;;;-2.7;100.0;100960;;;;
2022/12/12 05:40:00;;;;;;;4.3;4.2;;;;;;;-2.7;100.0;100960;;;;
2022/12/12 05:41:00;;;;;;;4.3;4.2;;;;;;;-2.7;100.0;100960;;;;
2022/12/12 05:42:00;;;;;;;4.3;4.2;;;;;;;-2.7;100.0;100960;;;;
2022/12/12 05:43:00;;;;;;;4.3;4.2;;;;;;;-2.7;100.0;100960;;;;
2022/12/12 05:44:00;;;;;;;4.3;4.2;;;;;;;-2.7;100.0;100960;;;;
2022/12/12 05:45:00;;;;;;;4.3;4.2;;;;;;;-2.7;100.0;100960;;;;
2022/12/12 05:46:01;;;;;;;4.3;4.2;;;;;;;-2.7;100.0;100960;;;;
2022/12/12 05:47:00;;;;;;;4.3;4.2;;;;;;;-2.7;100.0;100960;;;;
2022/12/12 05:48:00;;;;;;;4.3;4.2;;;;;;;-2.7;100.0;100960;;;;
2022/12/12 05:49:00;;;;;;;4.3;4.2;;;;;;;-2.7;100.0;100960;;;;
2022/12/12 05:50:00;;;;;;;4.3;4.2;;;;;;;-2.8;100.0;100960;;;;
2022/12/12 05:51:01;;;;;;;4.3;4.2;;;;;;;-2.8;100.0;100960;;;;
2022/12/12 05:52:00;;;;;;;4.3;4.2;;;;;;;-2.8;100.0;100960;;;;
2022/12/12 05:53:00;;;;;;;4.3;4.2;;;;;;;-2.8;100.0;100960;;;;
2022/12/12 05:54:00;;;;;;;4.3;4.2;;;;;;;-2.8;100.0;100960;;;;
2022/12/12 05:55:00;;;;;;;4.3;4.2;;;;;;;-2.8;100.0;100960;;;;
2022/12/12 05:56:00;;;;;;;4.3;4.2;;;;;;;-2.8;100.0;100960;;;;
2022/12/12 05:57:00;;;;;;;4.3;4.2;;;;;;;-2.8;100.0;100960;;;;
2022/12/12 05:58:00;;;;;;;4.3;4.2;;;;;;;-2.9;100.0;100970;;;;
2022/12/12 05:59:00;;;;;;;5.2;5.1;;;;;;;-2.9;100.0;100970;;;;
2022/12/12 06:00:00;;;;;;;5.2;5.1;;;;;;;-2.9;100.0;100970;;;;
2022/12/12 06:01:04;;;;;;;5.2;5.1;;;;;;;-2.9;100.0;100970;;;;
2022/12/12 06:02:00;;;;;;;5.2;5.1;;;;;;;-2.9;100.0;100970;;;;
2022/12/12 06:03:00;;;;;;;5.2;5.1;;;;;;;-2.9;100.0;100970;;;;
2022/12/12 06:04:00;;;;;;;5.2;5.1;;;;;;;-2.9;100.0;100970;;;;
2022/12/12 06:05:00;;;;;;;5.2;5.1;;;;;;;-2.9;100.0;100970;;;;
2022/12/12 06:06:00;;;;;;;5.2;5.1;;;;;;;-3.0;100.0;100970;;;;
2022/12/12 06:07:00;;;;;;;5.2;5.1;;;;;;;-3.0;100.0;100970;;;;
2022/12/12 06:08:00;;;;;;;5.2;5.1;;;;;;;-3.0;100.0;100970;;;;
2022/12/12 06:09:00;;;;;;;5.2;5.1;;;;;;;-3.0;100.0;100970;;;;
2022/12/12 06:10:00;;;;;;;5.2;5.1;;;;;;;-3.0;100.0;100970;;;;
2022/12/12 06:11:03;;;;;;;5.2;5.1;;;;;;;-3.0;100.0;100970;;;;
2022/12/12 06:12:01;;;;;;;5.2;5.1;;;;;;;-3.0;100.0;100970;;;;
2022/12/12 06:13:00;;;;;;;5.2;5.1;;;;;;;-3.0;100.0;100970;;;;
2022/12/12 06:14:00;;;;;;;5.2;5.1;;;;;;;-3.0;100.0;100970;;;;
2022/12/12 06:15:00;;;;;;;5.2;5.1;;;;;;;-3.0;100.0;100970;;;;
2022/12/12 06:16:04;;;;;;;5.2;5.1;;;;;;;-3.0;100.0;100970;;;;
2022/12/12 06:17:00;;;;;;;5.2;5.1;;;;;;;-3.0;100.0;100970;;;;
2022/12/12 06:18:00;;;;;;;5.2;5.1;;;;;;;-3.0;100.0;100970;;;;
2022/12/12 06:19:01;;;;;;;4.7;4.6;;;;;;;-3.0;100.0;100970;;;;
2022/12/12 06:20:01;;;;;;;4.7;4.6;;;;;;;-3.0;100.0;100970;;;;
2022/12/12 06:21:01;;;;;;;4.7;4.6;;;;;;;-3.0;100.0;100970;;;;
2022/12/12 06:22:00;;;;;;;4.7;4.6;;;;;;;-3.0;100.0;100970;;;;
2022/12/12 06:23:00;;;;;;;4.7;4.6;;;;;;;-3.0;100.0;100970;;;;
2022/12/12 06:24:00;;;;;;;4.7;4.6;;;;;;;-3.0;100.0;100970;;;;
2022/12/12 06:25:00;;;;;;;4.7;4.6;;;;;;;-3.0;100.0;100970;;;;
2022/12/12 06:26:00;;;;;;;4.7;4.6;;;;;;;-3.1;100.0;100980;;;;
2022/12/12 06:27:00;;;;;;;4.7;4.6;;;;;;;-3.1;100.0;100980;;;;
2022/12/12 06:28:00;;;;;;;4.7;4.6;;;;;;;-3.2;100.0;100990;;;;
2022/12/12 06:29:00;;;;;;;4.7;4.6;;;;;;;-3.2;100.0;100990;;;;
2022/12/12 06:30:00;;;;;;;4.7;4.6;;;;;;;-3.2;100.0;100990;;;;
2022/12/12 06:31:00;;;;;;;4.7;4.6;;;;;;;-3.2;100.0;100990;;;;
2022/12/12 06:32:00;;;;;;;4.7;4.6;;;;;;;-3.2;100.0;100990;;;;
2022/12/12 06:33:00;;;;;;;4.7;4.6;;;;;;;-3.2;100.0;100990;;;;
2022/12/12 06:34:00;;;;;;;4.7;4.6;;;;;;;-3.1;100.0;100990;;;;
2022/12/12 06:35:00;;;;;;;4.7;4.6;;;;;;;-3.1;100.0;100990;;;;
2022/12/12 06:36:02;;;;;;;4.7;4.6;;;;;;;-3.2;100.0;100990;;;;
2022/12/12 06:37:00;;;;;;;4.7;4.6;;;;;;;-3.2;100.0;100990;;;;
2022/12/12 06:38:01;;;;;;;4.7;4.6;;;;;;;-3.2;100.0;100990;;;;
2022/12/12 06:39:00;;;;;;;4.4;4.3;;;;;;;-3.2;100.0;100990;;;;